Date,TemperatureHighF,TemperatureAvgF,TemperatureLowF,DewpointHighF,DewpointAvgF,DewpointLowF,HumidityHigh,HumidityAvg,HumidityLow,PressureMaxIn,PressureMinIn,WindSpeedMaxMPH,WindSpeedAvgMPH,GustSpeedMaxMPH,PrecipitationSumIn
2013-1-1,31.0,26.4,19.0,27.0,21.7,15.0,92,82,70,30.13,30.01,8,2,12,0.00
2013-1-2,24.0,11.1,1.0,14.0,6.0,-3.0,90,80,64,30.22,30.11,9,3,10,0.00
2013-1-3,29.0,21.3,9.0,25.0,15.6,4.0,86,78,66,30.24,30.12,17,10,24,0.00
2013-1-4,26.0,20.5,13.0,21.0,15.7,10.0,86,81,75,30.26,30.18,20,12,28,0.00
2013-1-5,34.0,25.7,14.0,30.0,21.9,11.0,93,85,74,30.27,30.05,18,9,26,0.01
2013-1-6,35.0,30.2,24.0,31.0,26.6,20.0,91,86,83,30.30,29.93,21,13,28,0.01
2013-1-7,34.0,24.7,11.0,27.0,20.6,8.0,92,84,75,30.39,30.16,21,8,26,0.00
2013-1-8,41.0,29.2,18.0,31.0,24.0,15.0,90,81,68,30.24,30.14,20,8,24,0.01
2013-1-9,44.0,38.5,28.0,36.0,32.8,24.0,87,80,68,30.45,30.09,20,11,26,0.01
2013-1-10,39.0,32.5,25.0,35.0,28.1,22.0,93,84,73,30.50,30.05,14,6,22,0.05
2013-1-11,56.0,49.0,37.0,53.0,46.4,35.0,97,90,79,30.05,29.75,22,12,28,0.51
2013-1-12,60.0,52.4,46.0,54.0,49.6,44.0,97,90,82,29.94,29.74,18,8,23,0.49
2013-1-13,52.0,36.8,23.0,51.0,35.4,20.0,97,94,88,30.12,29.70,21,9,29,1.25
2013-1-14,23.0,18.9,15.0,20.0,15.4,11.0,94,86,82,30.42,30.12,17,5,22,0.02
2013-1-15,27.0,21.7,14.0,21.0,17.4,12.0,92,83,72,30.38,30.10,11,2,7,0.00
2013-1-16,34.0,27.6,21.0,27.0,22.2,18.0,93,81,61,30.10,29.88,19,8,24,0.00
2013-1-17,37.0,29.4,20.0,29.0,23.2,15.0,93,78,60,30.36,30.01,20,7,27,0.00
2013-1-18,36.0,28.0,19.0,27.0,20.7,14.0,86,74,64,30.42,30.04,29,14,46,0.00
2013-1-19,48.0,41.2,36.0,37.0,31.5,26.0,78,68,61,30.04,29.78,25,18,35,0.00
2013-1-20,41.0,24.5,18.0,35.0,14.6,9.0,78,66,56,30.22,29.78,32,14,43,0.00
2013-1-21,19.0,13.6,7.0,10.0,4.0,-4.0,82,65,52,30.19,30.04,26,16,34,0.00
2013-1-22,12.0,7.2,2.0,0.0,-2.5,-5.0,78,64,54,30.32,30.19,20,12,29,0.00
2013-1-23,19.0,13.6,8.0,13.0,5.2,-1.0,81,68,55,30.29,30.06,17,9,22,0.00
2013-1-24,20.0,15.2,7.0,14.0,7.2,2.0,89,71,53,30.56,30.10,16,5,33,0.00
2013-1-25,25.0,20.2,17.0,21.0,15.0,10.0,89,80,69,30.42,29.98,16,7,19,0.00
2013-1-26,27.0,24.0,20.0,21.0,17.8,15.0,85,76,67,30.39,30.02,15,5,19,0.02
2013-1-27,33.0,24.6,16.0,31.0,20.5,13.0,94,84,78,30.40,30.05,13,5,17,0.01
2013-1-28,48.0,43.4,33.0,47.0,42.4,31.0,97,96,94,30.06,29.90,20,10,29,0.31
2013-1-29,60.0,54.4,45.0,57.0,52.6,44.0,98,94,90,29.94,29.39,31,19,40,0.11
2013-1-30,62.0,46.2,29.0,58.0,44.3,26.0,97,93,86,29.46,29.20,37,16,44,0.62
2013-1-31,28.0,18.7,10.0,26.0,13.5,4.0,92,80,72,30.01,29.46,30,20,37,0.01
2013-2-1,14.0,10.4,5.0,9.0,4.4,0.0,80,76,72,30.33,30.01,27,14,33,0.00
2013-2-2,24.0,19.4,14.0,22.0,16.5,8.0,91,88,78,30.22,29.93,15,9,22,0.00
2013-2-3,20.0,14.9,8.0,16.0,11.0,4.0,90,84,78,30.03,29.90,17,8,23,0.00
2013-2-4,29.0,22.1,10.0,26.0,19.5,7.0,93,89,80,30.03,29.78,9,3,13,0.02
2013-2-5,31.0,24.0,11.0,28.0,20.8,9.0,94,88,74,29.98,29.78,16,6,21,0.01
2013-2-6,34.0,29.9,27.0,26.0,24.3,23.0,87,79,67,30.24,29.98,14,4,22,0.01
2013-2-7,44.0,34.6,28.0,38.0,30.5,25.0,92,85,78,30.19,29.75,11,5,14,0.09
2013-2-8,38.0,31.1,23.0,37.0,27.2,20.0,95,85,75,30.32,29.75,23,12,32,0.10
2013-2-9,35.0,26.8,19.0,28.0,22.7,17.0,92,84,74,30.39,30.18,14,5,18,0.00
2013-2-10,47.0,38.3,29.0,45.0,33.6,24.0,94,83,76,30.18,29.64,25,12,35,0.07
2013-2-11,48.0,37.2,31.0,46.0,31.2,23.0,94,79,72,29.96,29.61,31,21,40,0.01
2013-2-12,36.0,30.5,28.0,29.0,25.2,22.0,86,80,74,30.08,29.91,22,11,29,0.00
2013-2-13,43.0,31.5,24.0,32.0,26.0,21.0,92,80,63,29.91,29.72,11,3,16,0.00
2013-2-14,43.0,36.2,33.0,38.0,31.7,26.0,93,84,73,29.93,29.72,24,15,17,0.00
2013-2-15,34.0,28.0,20.0,28.0,22.9,15.0,91,81,64,30.13,29.93,14,5,0,0.00
2013-2-16,23.0,19.8,14.0,21.0,13.9,7.0,91,78,58,30.11,30.03,17,8,24,0.00
2013-2-17,28.0,19.4,11.0,17.0,11.9,6.0,84,73,55,30.19,30.09,12,4,16,0.00
2013-2-18,52.0,37.2,21.0,42.0,28.9,15.0,88,72,64,30.12,29.53,38,16,47,0.10
2013-2-19,44.0,23.2,15.0,42.0,19.0,10.0,92,83,77,30.06,29.48,32,22,55,0.17
2013-2-20,22.0,17.0,11.0,16.0,11.3,6.0,82,78,73,30.28,30.06,19,13,24,0.01
2013-2-21,26.0,23.1,21.0,20.0,17.3,15.0,84,78,74,30.33,30.06,19,6,25,0.00
2013-2-22,34.0,28.2,21.0,33.0,26.7,18.0,96,94,86,30.07,29.83,16,8,23,0.09
2013-2-23,30.0,27.3,25.0,25.0,22.3,21.0,87,81,76,29.95,29.89,17,11,20,0.00
2013-2-24,37.0,28.3,21.0,26.0,21.8,17.0,87,77,63,30.13,29.93,12,6,20,0.01
2013-2-25,41.0,30.8,19.0,30.0,24.9,17.0,94,79,63,30.17,29.96,15,4,19,0.01
2013-2-26,34.0,31.8,30.0,33.0,28.9,25.0,96,89,78,29.95,29.41,13,4,24,0.82
2013-2-27,34.0,32.4,30.0,33.0,31.1,29.0,100,95,92,29.61,29.41,18,11,24,0.46
2013-2-28,36.0,33.0,30.0,33.0,30.9,28.0,97,92,86,29.93,29.59,15,9,20,0.04
2013-3-1,32.0,29.9,26.0,29.0,26.0,20.0,95,86,75,30.07,29.92,11,5,18,0.02
2013-3-2,31.0,26.9,24.0,21.0,19.6,17.0,87,74,63,30.08,30.02,14,7,20,0.01
2013-3-3,32.0,26.7,22.0,21.0,18.4,16.0,80,70,61,30.07,30.01,15,6,22,0.00
2013-3-4,35.0,26.6,16.0,27.0,20.1,13.0,92,77,60,30.12,29.99,8,2,12,0.00
2013-3-5,32.0,29.6,27.0,29.0,27.4,26.0,96,92,83,30.03,29.64,15,7,22,0.02
2013-3-6,33.0,29.4,25.0,30.0,27.2,23.0,96,92,88,30.22,29.73,19,8,29,0.25
2013-3-7,38.0,33.0,29.0,31.0,28.4,23.0,95,84,67,30.38,30.21,12,5,15,0.25
2013-3-8,40.0,29.7,15.0,27.0,22.7,12.0,92,76,58,30.47,30.37,7,2,11,0.01
2013-3-9,41.0,33.8,24.0,35.0,29.0,20.0,90,82,72,30.37,29.95,13,7,19,0.07
2013-3-10,59.0,48.6,40.0,47.0,40.2,34.0,85,73,60,29.94,29.73,26,11,34,0.02
2013-3-11,54.0,44.9,34.0,48.0,41.5,31.0,96,88,66,29.78,29.55,27,14,35,0.15
2013-3-12,36.0,32.2,30.0,32.0,27.8,24.0,95,84,70,29.96,29.78,21,15,33,0.02
2013-3-13,31.0,27.2,24.0,27.0,20.8,16.0,90,77,62,30.27,29.95,20,14,28,0.00
2013-3-14,40.0,29.9,22.0,28.0,21.1,17.0,84,70,52,30.30,30.11,12,7,0,0.00
2013-3-15,47.0,37.1,29.0,41.0,33.6,27.0,100,88,72,30.11,29.74,13,6,19,0.15
2013-3-16,41.0,36.2,32.0,40.0,34.2,27.0,97,93,83,30.04,29.61,12,4,18,0.15
2013-3-17,35.0,30.0,28.0,28.0,24.1,22.0,92,78,68,30.17,30.04,15,6,21,0.00
2013-3-18,36.0,31.3,27.0,35.0,29.2,23.0,97,92,81,30.04,29.56,21,8,31,0.11
2013-3-19,35.0,28.2,22.0,27.0,19.0,15.0,81,69,57,30.03,29.75,30,22,40,0.03
2013-3-20,30.0,25.4,21.0,20.0,15.0,10.0,77,64,51,30.03,29.94,22,15,30,0.00
2013-3-21,34.0,23.8,15.0,19.0,15.4,11.0,86,71,48,29.98,29.93,16,9,23,0.00
2013-3-22,41.0,28.9,18.0,23.0,18.8,14.0,87,68,44,30.03,29.95,11,4,2,0.00
2013-3-23,44.0,33.3,25.0,28.0,23.0,17.0,82,66,51,30.07,29.93,8,2,0,0.00
2013-3-24,35.0,30.7,28.0,27.0,24.8,22.0,94,78,64,29.95,29.50,18,8,0,0.00
2013-3-25,33.0,30.0,27.0,32.0,28.7,26.0,100,95,92,29.94,29.49,16,12,0,0.00
2013-3-26,38.0,33.1,30.0,35.0,30.2,28.0,93,90,66,30.19,29.94,16,10,0,0.00
2013-3-27,40.0,33.5,28.0,32.0,27.7,25.0,90,80,60,30.28,30.18,15,8,0,0.00
2013-3-28,47.0,35.8,26.0,34.0,27.8,22.0,92,74,51,30.32,30.25,13,6,16,0.00
2013-3-29,52.0,39.6,28.0,33.0,28.7,24.0,93,67,42,30.29,30.19,12,2,18,0.00
2013-3-30,54.0,41.3,26.0,39.0,31.6,23.0,92,70,48,30.22,29.90,14,4,26,0.00
2013-3-31,59.0,48.0,40.0,45.0,38.9,-99.9,95,74,47,29.90,29.68,22,9,29,0.00
2013-4-1,41.0,35.4,28.0,33.0,23.4,17.0,79,62,44,30.12,29.78,21,10,26,0.00
2013-4-2,44.0,31.8,21.0,23.0,17.9,12.0,84,59,31,30.26,30.12,20,6,27,0.00
2013-4-3,46.0,33.8,21.0,22.0,17.6,13.0,81,54,29,30.41,30.25,13,3,19,0.00
2013-4-4,56.0,40.5,27.0,30.0,23.1,16.0,73,52,31,30.31,29.96,11,4,16,0.00
2013-4-5,54.0,43.8,35.0,35.0,27.1,22.0,73,53,30,30.16,29.94,13,5,20,0.00
2013-4-6,65.0,48.7,35.0,42.0,32.1,25.0,68,54,39,30.15,29.75,27,13,34,0.00
2013-4-7,67.0,58.5,50.0,46.0,43.7,40.0,85,59,43,29.95,29.70,31,14,37,0.01
2013-4-8,73.0,57.5,45.0,58.0,48.3,37.0,91,72,54,29.96,29.75,30,10,40,0.07
2013-4-9,79.0,64.3,51.0,63.0,54.6,46.0,85,72,51,29.99,29.84,28,10,35,0.06
2013-4-10,74.0,60.5,47.0,67.0,57.5,46.0,96,90,79,29.88,29.78,18,6,8,0.00
2013-4-11,48.0,44.7,40.0,47.0,43.7,39.0,97,97,96,29.88,29.55,14,8,0,0.00
2013-4-12,42.0,39.8,37.0,41.0,36.1,32.0,97,87,75,29.85,29.55,20,13,0,0.00
2013-4-13,43.0,38.7,35.0,36.0,33.7,31.0,93,82,67,29.98,29.85,21,12,0,0.00
2013-4-14,65.0,49.1,37.0,53.0,42.3,34.0,89,78,63,30.03,29.82,15,8,0,0.00
2013-4-15,64.0,57.6,50.0,58.0,51.6,45.0,91,81,72,29.92,29.81,20,12,0,0.00
2013-4-16,60.0,50.9,46.0,55.0,47.3,42.0,96,88,74,30.20,29.87,18,6,0,0.00
2013-4-17,59.0,50.7,46.0,56.0,46.0,40.0,90,84,77,30.22,29.92,17,7,0,0.00
2013-4-18,73.0,59.6,47.0,67.0,57.0,42.0,98,91,78,29.93,29.56,33,14,32,2.50
2013-4-19,60.0,40.5,35.0,59.0,36.3,31.0,98,85,74,29.87,29.50,30,19,40,3.19
2013-4-20,43.0,37.0,32.0,32.0,28.0,22.0,91,71,49,30.41,29.87,20,11,33,0.01
2013-4-21,50.0,39.4,29.0,34.0,27.1,20.0,71,62,48,30.55,30.37,14,6,19,0.01
2013-4-22,66.0,48.9,32.0,46.0,36.9,29.0,91,66,40,30.38,30.10,10,4,17,0.00
2013-4-23,67.0,55.1,43.0,56.0,48.1,38.0,97,78,58,30.11,29.78,23,8,31,0.90
2013-4-24,56.0,40.7,36.0,55.0,37.1,32.0,97,87,64,30.17,29.77,20,12,30,0.99
2013-4-25,51.0,43.1,35.0,40.0,34.2,30.0,92,72,46,30.35,30.14,26,11,33,0.01
2013-4-26,62.0,46.8,30.0,44.0,36.8,27.0,92,70,47,30.42,30.32,13,4,23,0.00
2013-4-27,68.0,53.8,37.0,51.0,41.8,33.0,88,66,43,30.33,30.03,17,7,28,0.00
2013-4-28,59.0,55.7,52.0,57.0,52.6,-99.9,98,93,79,30.03,29.80,12,3,15,0.57
2013-4-29,68.0,59.2,54.0,59.0,55.0,53.0,97,87,70,29.96,29.85,14,6,18,0.03
2013-4-30,78.0,64.7,51.0,65.0,57.1,48.0,92,78,62,30.01,29.90,21,11,25,0.00
2013-5-1,82.0,69.3,51.0,63.0,57.1,48.0,95,67,47,30.16,30.01,15,6,20,0.00
2013-5-2,76.0,67.8,58.0,62.0,56.8,54.0,85,69,55,30.18,30.06,16,7,22,0.00
2013-5-3,75.0,67.6,59.0,62.0,56.9,49.0,86,70,54,30.07,29.93,19,10,26,0.00
2013-5-4,72.0,64.1,57.0,50.0,47.1,44.0,71,55,38,30.01,29.94,17,10,26,0.00
2013-5-5,69.0,60.8,53.0,54.0,49.0,44.0,77,66,52,30.00,29.93,17,5,26,0.00
2013-5-6,69.0,62.2,55.0,56.0,49.9,43.0,81,64,52,29.98,29.92,15,4,21,0.00
2013-5-7,74.0,65.0,56.0,57.0,54.2,51.0,84,69,54,30.01,29.93,12,2,19,0.00
2013-5-8,79.0,65.2,52.0,58.0,54.8,50.0,94,71,43,30.01,29.93,13,2,18,0.02
2013-5-9,79.0,63.4,51.0,61.0,56.1,50.0,97,79,45,29.99,29.89,24,4,28,0.04
2013-5-10,67.0,59.8,48.0,61.0,54.7,-99.9,95,88,76,29.88,29.77,17,11,25,0.43
2013-5-11,58.0,47.1,42.0,53.0,43.8,35.0,96,88,71,29.98,29.80,33,9,38,0.01
2013-5-12,52.0,44.9,36.0,36.0,32.1,-99.9,85,64,46,30.11,29.98,19,9,28,0.00
2013-5-13,61.0,47.8,34.0,37.0,32.3,28.0,93,59,30,30.16,30.08,14,4,22,0.00
2013-5-14,84.0,66.0,48.0,63.0,49.4,32.0,68,56,46,30.09,29.74,26,13,34,0.00
2013-5-15,84.0,76.3,70.0,63.0,59.0,55.0,73,56,43,29.81,29.71,22,14,26,0.00
2013-5-16,83.0,64.6,58.0,58.0,33.3,-99.9,86,57,33,29.95,29.79,10,2,9,0.00
2013-5-17,81.0,64.5,54.0,63.0,48.2,-99.9,88,69,45,30.06,29.95,22,4,29,0.00
2013-5-18,79.0,66.7,57.0,64.0,54.6,43.0,78,66,60,30.08,29.97,10,3,16,0.00
2013-5-19,85.0,72.9,57.0,68.0,61.0,50.0,79,67,53,29.99,29.84,13,4,20,0.00
2013-5-20,87.0,77.0,67.0,71.0,68.0,64.0,95,75,55,29.91,29.81,25,12,31,0.00
2013-5-21,86.0,75.2,65.0,68.0,64.6,62.0,93,72,46,29.83,29.72,23,14,34,0.01
2013-5-22,76.0,69.7,62.0,68.0,62.9,60.0,92,79,64,29.77,29.67,25,12,39,0.22
2013-5-23,62.0,57.6,49.0,60.0,54.6,46.0,94,90,81,30.14,29.75,20,10,26,0.09
2013-5-24,64.0,52.7,41.0,46.0,41.6,39.0,92,69,40,30.34,30.14,14,6,21,0.03
2013-5-25,66.0,55.0,43.0,47.0,42.4,38.0,87,64,42,30.37,30.22,8,3,14,0.00
2013-5-26,70.0,59.2,45.0,50.0,43.2,38.0,87,57,40,30.30,30.15,14,5,18,0.00
2013-5-27,64.0,57.6,50.0,63.0,53.3,42.0,98,87,51,30.19,29.88,17,7,25,1.61
2013-5-28,79.0,70.5,62.0,71.0,66.1,61.0,98,87,73,29.92,29.85,28,12,33,0.87
2013-5-29,83.0,75.5,69.0,70.0,66.4,62.0,84,74,60,30.01,29.90,22,13,28,0.25
2013-5-30,85.0,76.0,67.0,73.0,67.6,62.0,89,76,60,30.06,29.92,26,14,34,0.00
2013-5-31,75.0,71.7,68.0,71.0,67.8,63.0,94,87,79,29.99,29.85,23,13,31,0.19
2013-6-1,74.0,69.2,64.0,69.0,65.0,62.0,97,87,76,29.89,29.73,21,10,33,0.39
2013-6-2,68.0,62.3,53.0,65.0,56.8,-99.9,93,86,76,30.00,29.74,17,11,26,0.02
2013-6-3,68.0,56.6,45.0,49.0,44.4,38.0,94,67,42,30.08,29.99,10,3,19,0.01
2013-6-4,73.0,61.7,46.0,53.0,49.0,44.0,95,66,45,30.16,30.07,10,3,17,0.00
2013-6-5,78.0,66.2,53.0,57.0,51.1,45.0,74,59,44,30.11,29.90,12,4,15,0.00
2013-6-6,76.0,64.4,58.0,60.0,52.7,46.0,79,67,53,29.93,29.80,12,3,17,0.00
2013-6-7,73.0,64.1,56.0,58.0,55.6,53.0,93,75,57,29.90,29.83,10,2,14,0.00
2013-6-8,78.0,65.1,50.0,59.0,54.3,48.0,95,70,47,30.01,29.90,9,2,14,0.00
2013-6-9,83.0,72.0,63.0,67.0,61.8,58.0,88,72,47,30.03,29.85,16,6,21,0.01
2013-6-10,77.0,69.9,65.0,67.0,65.1,64.0,96,85,67,29.85,29.75,16,9,21,0.63
2013-6-11,83.0,70.7,61.0,69.0,64.8,60.0,97,83,58,29.95,29.81,15,5,20,0.01
2013-6-12,88.0,76.3,66.0,77.0,70.9,65.0,97,84,65,29.90,29.64,24,6,35,0.01
2013-6-13,77.0,69.1,61.0,65.0,60.2,54.0,98,75,54,29.95,29.59,23,11,33,0.17
2013-6-14,79.0,67.2,56.0,63.0,58.0,54.0,95,74,47,30.08,29.95,10,3,14,0.17
2013-6-15,77.0,67.2,58.0,67.0,61.9,56.0,96,84,67,30.09,29.93,12,3,17,0.00
2013-6-16,80.0,72.0,65.0,71.0,66.9,63.0,95,85,70,29.94,29.89,20,8,34,0.05
2013-6-17,85.0,75.4,67.0,73.0,67.3,63.0,97,78,49,29.95,29.88,10,4,15,0.01
2013-6-18,79.0,71.7,64.0,66.0,62.9,58.0,90,74,56,30.02,29.86,12,2,21,0.00
2013-6-19,78.0,67.8,56.0,61.0,55.7,51.0,87,67,46,30.14,30.01,6,1,12,0.00
2013-6-20,84.0,68.7,58.0,67.0,58.7,53.0,87,71,55,30.18,30.11,7,1,12,0.00
2013-6-22,88.0,80.4,71.0,76.0,72.1,69.0,94,77,65,30.10,30.01,14,8,19,0.46
2013-6-23,87.0,75.4,66.0,74.0,69.0,65.0,97,82,56,30.10,30.01,18,7,27,0.04
2013-6-24,85.0,75.8,66.0,73.0,69.4,64.0,96,82,59,30.10,29.97,16,7,26,0.52
2013-6-25,88.0,77.9,67.0,77.0,71.3,65.0,97,81,64,30.00,29.83,17,9,24,0.52
2013-6-26,81.0,72.0,67.0,76.0,69.4,66.0,97,91,74,29.91,29.72,16,3,25,0.87
2013-6-27,84.0,75.4,70.0,75.0,70.9,67.0,98,87,72,29.77,29.68,15,6,22,0.18
2013-6-28,80.0,71.7,64.0,69.0,65.8,60.0,96,83,59,29.68,29.57,26,6,38,0.75
2013-6-29,75.0,65.9,61.0,68.0,63.7,60.0,98,93,75,29.68,29.56,14,1,22,0.58
2013-6-30,72.0,66.0,61.0,66.0,62.7,60.0,98,90,74,29.90,29.68,13,4,17,1.37
2013-7-1,70.0,66.3,62.0,64.0,60.7,57.0,89,82,75,29.99,29.88,14,5,23,0.20
2013-7-2,75.0,65.6,59.0,69.0,62.3,57.0,98,90,78,30.01,29.96,10,4,17,0.59
2013-7-3,79.0,71.2,61.0,69.0,65.8,60.0,98,84,66,30.08,29.99,18,5,23,0.01
2013-7-4,79.0,70.4,62.0,68.0,64.0,58.0,98,82,51,30.14,30.06,5,0,10,0.01
2013-7-5,82.0,73.3,65.0,72.0,68.1,64.0,98,85,66,30.12,30.04,9,2,13,0.01
2013-7-6,78.0,71.2,68.0,71.0,68.7,67.0,98,92,76,30.10,30.00,11,2,14,0.05
2013-7-7,81.0,72.7,64.0,73.0,68.7,63.0,98,88,74,30.07,29.99,12,6,17,0.01
2013-7-8,82.0,75.2,69.0,76.0,71.2,67.0,95,87,79,30.08,29.98,13,6,21,0.08
2013-7-9,86.0,79.8,73.0,78.0,75.0,71.0,94,85,75,30.02,29.91,16,6,21,0.04
2013-7-10,84.0,75.9,67.0,78.0,69.1,-99.9,95,83,72,29.98,29.82,17,9,32,0.04
2013-7-11,79.0,68.5,59.0,62.0,58.5,56.0,91,72,50,30.06,29.96,14,4,19,0.54
2013-7-12,79.0,69.5,59.0,64.0,60.1,56.0,94,73,54,30.12,30.03,10,3,16,0.00
2013-7-13,82.0,72.4,61.0,70.0,64.8,58.0,92,78,63,30.16,30.10,9,2,16,0.00
2013-7-14,87.0,77.2,66.0,76.0,71.1,65.0,96,82,68,30.21,30.15,8,2,13,0.00
2013-7-15,90.0,80.2,71.0,78.0,74.4,69.0,98,83,64,30.29,30.21,9,3,15,0.00
2013-7-16,91.0,81.0,70.0,78.0,73.7,68.0,97,80,61,30.35,30.27,7,1,11,0.00
2013-7-17,90.0,81.1,71.0,78.0,73.9,69.0,96,80,60,30.34,30.19,10,2,15,0.00
2013-7-18,91.0,81.8,72.0,79.0,74.9,70.0,96,81,61,30.21,30.01,11,3,14,0.00
2013-7-19,91.0,82.2,74.0,78.0,74.9,71.0,93,79,63,30.02,29.83,21,9,26,0.00
2013-7-20,85.0,77.8,70.0,76.0,71.7,-99.9,96,84,67,29.91,29.79,21,8,41,0.52
2013-7-21,82.0,73.1,69.0,72.0,68.0,65.0,96,85,70,29.97,29.91,8,1,10,0.42
2013-7-22,81.0,74.0,66.0,72.0,69.3,65.0,98,86,72,29.88,29.77,11,1,13,0.12
2013-7-23,82.0,73.0,61.0,72.0,67.2,56.0,97,83,66,29.88,29.71,20,8,26,0.01
2013-7-24,73.0,62.9,52.0,58.0,54.2,49.0,92,75,55,30.02,29.88,12,4,16,0.00
2013-7-25,77.0,65.3,52.0,62.0,57.0,51.0,97,76,52,30.11,30.02,4,0,8,0.00
2013-7-26,79.0,67.2,55.0,65.0,59.9,53.0,96,79,59,30.09,29.92,12,4,17,0.00
2013-7-27,74.0,67.9,57.0,66.0,61.5,52.0,94,80,65,29.92,29.81,18,9,27,0.00
2013-7-28,68.0,59.8,51.0,57.0,52.4,48.0,92,78,60,30.01,29.89,17,8,25,0.00
2013-7-29,74.0,61.7,50.0,62.0,54.7,47.0,94,79,62,30.17,30.01,15,5,19,0.00
2013-7-30,77.0,64.4,52.0,67.0,58.7,50.0,97,83,61,30.21,30.10,3,1,0,0.00
2013-7-31,71.0,67.4,65.0,69.0,65.5,62.0,96,93,89,30.11,29.93,8,3,0,0.00
2013-8-1,79.0,68.3,62.0,66.0,62.2,58.0,98,83,55,29.99,29.93,14,4,0,0.00
2013-8-2,80.0,65.5,55.0,70.0,61.8,53.0,96,88,68,29.98,29.86,17,4,27,1.53
2013-8-3,79.0,68.9,64.0,67.0,63.1,56.0,98,84,58,30.04,29.93,13,3,20,2.18
2013-8-4,76.0,65.8,54.0,62.0,57.0,52.0,94,75,53,30.18,30.07,11,2,0,0.00
2013-8-5,76.0,67.0,56.0,67.0,60.6,54.0,94,81,64,30.11,29.95,10,2,0,0.00
2013-8-6,79.0,69.0,60.0,73.0,65.2,58.0,94,88,79,29.96,29.89,8,4,13,0.00
2013-8-7,83.0,74.9,68.0,76.0,71.5,67.0,98,90,77,29.91,29.85,15,4,19,0.00
2013-8-8,74.0,71.7,68.0,71.0,69.0,67.0,96,91,84,29.98,29.90,7,2,12,0.04
2013-8-9,81.0,73.2,66.0,69.0,67.0,65.0,97,82,61,30.03,29.94,9,1,13,0.03
2013-8-10,83.0,73.1,64.0,73.0,67.1,63.0,97,83,58,30.10,30.03,11,2,14,0.01
2013-8-11,81.0,71.6,61.0,69.0,64.7,60.0,97,80,60,30.12,30.05,6,1,11,0.01
2013-8-12,83.0,71.2,61.0,72.0,66.5,60.0,97,86,67,30.08,29.85,10,3,15,0.00
2013-8-13,71.0,65.5,55.0,68.0,58.0,50.0,97,78,54,30.08,29.87,14,6,19,0.01
2013-8-14,70.0,57.6,48.0,55.0,48.3,-99.9,94,75,54,30.19,30.09,8,2,6,0.00
2013-8-15,74.0,54.7,47.0,60.0,36.7,-99.9,97,72,51,30.18,30.10,4,1,0,0.00
2013-8-16,76.0,63.6,56.0,62.0,53.5,-99.9,94,76,54,30.18,30.12,6,1,0,0.00
2013-8-17,77.0,65.2,54.0,62.0,57.6,52.0,96,78,57,30.23,30.16,9,1,0,0.00
2013-8-18,81.0,69.9,57.0,67.0,61.0,55.0,95,75,52,30.19,30.10,5,1,0,0.00
2013-8-19,82.0,65.3,56.0,68.0,48.4,-99.9,97,78,58,30.14,30.05,6,1,0,0.00
2013-8-20,86.0,71.5,58.0,73.0,62.7,-99.9,98,79,55,30.16,30.07,6,1,0,0.00
2013-8-21,85.0,72.0,64.0,74.0,66.8,61.0,95,85,63,30.16,30.02,7,1,6,0.00
2013-8-22,76.0,70.3,68.0,73.0,68.0,65.0,96,92,86,30.09,30.01,14,4,22,0.10
2013-8-23,82.0,71.5,61.0,69.0,64.1,58.0,98,79,55,30.16,30.06,7,2,10,0.06
2013-8-24,81.0,67.7,54.0,64.0,58.0,51.0,96,73,46,30.29,30.16,10,2,15,0.00
2013-8-25,86.0,70.5,56.0,69.0,60.6,-99.9,97,75,51,30.30,30.19,10,2,15,0.00
2013-8-26,87.0,74.0,61.0,75.0,67.8,57.0,93,82,62,30.22,30.05,11,6,17,0.00
2013-8-27,87.0,75.5,71.0,78.0,71.7,69.0,94,88,72,30.05,29.95,10,6,15,0.00
2013-8-28,87.0,83.3,77.0,77.0,75.1,72.0,86,77,69,30.00,29.91,12,6,16,0.00
2013-8-29,86.0,76.1,68.0,73.0,70.1,66.0,98,83,61,30.07,29.99,9,1,12,0.00
2013-8-30,90.0,75.5,61.0,75.0,68.7,60.0,98,81,56,29.99,29.75,13,4,16,0.00
2013-8-31,83.0,72.8,69.0,76.0,69.9,67.0,97,91,76,29.88,29.75,13,4,19,0.25
2013-9-1,77.0,70.6,67.0,72.0,67.2,-99.9,98,92,85,29.80,29.75,9,4,13,0.03
2013-9-2,81.0,71.5,62.0,70.0,64.4,57.0,98,80,52,29.93,29.76,17,6,21,0.01
2013-9-3,74.0,62.0,49.0,59.0,54.8,47.0,96,79,58,30.06,29.94,13,3,19,0.01
2013-9-4,80.0,65.4,50.0,63.0,56.9,48.0,98,77,52,30.13,30.04,13,3,22,0.00
2013-9-5,81.0,67.0,56.0,59.0,54.9,45.0,96,68,45,30.22,30.11,9,2,14,0.00
2013-9-6,81.0,63.8,48.0,62.0,52.5,45.0,92,69,43,30.25,30.08,9,1,13,0.00
2013-9-7,87.0,71.2,58.0,70.0,62.0,54.0,88,74,51,30.07,29.92,14,4,20,0.00
2013-9-8,77.0,69.3,63.0,70.0,63.3,-99.9,96,84,75,30.01,29.93,13,4,17,0.00
2013-9-9,92.0,76.1,61.0,74.0,67.6,58.0,93,77,55,30.01,29.88,14,5,20,0.00
2013-9-10,96.0,83.6,73.0,74.0,71.1,66.0,94,69,39,30.07,29.95,14,7,20,0.00
2013-9-11,95.0,82.5,71.0,74.0,69.5,64.0,92,67,42,30.10,29.96,16,7,23,0.00
2013-9-12,83.0,71.7,61.0,70.0,63.9,55.0,98,79,46,29.99,29.84,19,7,27,0.32
2013-9-13,64.0,57.1,49.0,55.0,47.1,44.0,90,71,49,30.11,29.98,13,5,20,0.00
2013-9-14,71.0,53.0,38.0,48.0,42.2,36.0,96,71,34,30.19,30.08,7,1,12,0.00
2013-9-15,72.0,53.6,43.0,57.0,46.2,-99.9,96,81,45,30.11,29.99,9,2,15,0.21
2013-9-16,66.0,58.2,53.0,56.0,53.1,49.0,96,84,60,30.31,30.10,8,1,15,0.21
2013-9-17,71.0,57.6,46.0,54.0,48.9,44.0,95,75,52,30.35,30.16,10,2,13,0.00
2013-9-18,67.0,56.3,55.0,55.0,50.8,47.0,95,83,64,30.16,30.02,5,0,7,0.03
2013-9-19,72.0,68.8,64.0,70.0,67.0,62.0,97,94,83,30.04,29.90,12,6,17,1.04
2013-9-20,78.0,71.8,66.0,71.0,68.9,65.0,97,91,74,29.93,29.79,13,8,21,0.19
2013-9-21,69.0,60.6,51.0,65.0,53.8,47.0,97,80,48,29.90,29.75,19,7,26,0.12
2013-9-22,67.0,55.5,49.0,49.0,44.9,-99.9,95,72,49,30.03,29.90,10,2,16,0.00
2013-9-23,67.0,54.8,43.0,50.0,46.3,41.0,94,75,54,30.13,30.03,11,2,14,0.00
2013-9-24,70.0,56.0,45.0,51.0,47.5,43.0,94,75,48,30.10,29.94,9,2,14,0.00
2013-9-25,73.0,60.4,49.0,55.0,51.1,47.0,95,74,49,29.97,29.90,11,2,14,0.00
2013-9-26,78.0,61.5,49.0,59.0,52.5,46.0,96,75,42,30.09,29.95,10,2,14,0.00
2013-9-27,79.0,62.7,48.0,57.0,50.8,44.0,92,67,44,30.19,30.09,9,2,13,0.00
2013-9-28,81.0,65.6,47.0,59.0,54.3,45.0,96,70,43,30.16,30.00,14,4,26,0.00
2013-9-29,65.0,60.0,54.0,61.0,55.9,-99.9,96,89,77,30.01,29.96,11,3,18,0.13
2013-9-30,74.0,59.5,51.0,61.0,55.5,50.0,99,88,63,30.02,29.92,10,2,22,0.01
2013-10-1,66.0,62.2,58.0,60.0,59.2,57.0,95,90,82,30.00,29.96,7,4,10,0.01
2013-10-2,80.0,68.5,61.0,70.0,64.4,60.0,98,88,66,30.10,30.00,8,2,13,0.01
2013-10-3,81.0,70.9,62.0,70.0,65.7,60.0,98,85,63,30.04,29.93,14,5,21,0.06
2013-10-4,85.0,74.1,67.0,71.0,67.7,64.0,94,81,62,30.03,29.97,14,8,20,0.01
2013-10-5,80.0,70.5,66.0,72.0,67.7,63.0,97,91,71,30.01,29.86,20,8,29,0.58
2013-10-6,68.0,60.2,48.0,66.0,57.8,42.0,97,92,74,29.88,29.71,17,10,28,0.64
2013-10-7,60.0,49.8,44.0,50.0,44.1,41.0,93,81,60,30.12,29.79,18,8,26,0.01
2013-10-8,72.0,56.2,43.0,53.0,47.2,41.0,97,75,48,30.25,30.12,9,3,14,0.00
2013-10-9,72.0,55.9,41.0,51.0,45.6,39.0,95,71,43,30.26,30.15,7,1,0,0.00
2013-10-10,73.0,56.8,41.0,53.0,46.5,39.0,96,72,42,30.20,30.08,4,0,0,0.00
2013-10-11,78.0,59.6,44.0,56.0,49.1,42.0,96,71,40,30.12,30.01,6,1,0,0.00
2013-10-12,80.0,62.9,47.0,59.0,52.7,45.0,95,72,42,30.10,30.00,12,3,0,0.00
2013-10-13,69.0,59.8,49.0,61.0,45.7,-99.9,89,64,41,30.35,30.09,14,6,0,0.00
2013-10-14,66.0,52.6,41.0,51.0,44.4,39.0,94,76,51,30.37,30.20,9,2,0,0.00
2013-10-15,65.0,56.6,47.0,62.0,53.7,44.0,97,90,84,30.21,29.87,15,6,0,0.00
2013-10-16,63.0,54.5,48.0,61.0,48.7,42.0,94,81,64,29.95,29.85,18,10,0,0.00
2013-10-17,51.0,45.9,41.0,49.0,43.2,39.0,96,90,81,29.94,29.83,18,6,0,0.00
2013-10-18,63.0,48.2,38.0,50.0,42.1,36.0,95,81,51,29.96,29.88,18,9,0,0.00
2013-10-19,51.0,43.9,38.0,43.0,38.5,36.0,95,82,60,29.95,29.81,17,7,0,0.00
2013-10-20,64.0,50.6,40.0,47.0,39.6,-99.9,87,69,52,29.94,29.85,21,13,0,0.00
2013-10-21,54.0,48.7,38.0,47.0,42.5,29.0,89,79,69,29.95,29.87,19,12,0,0.00
2013-10-22,47.0,36.9,29.0,35.0,29.8,25.0,94,77,47,29.99,29.89,11,6,0,0.00
2013-10-23,43.0,37.4,33.0,38.0,33.8,29.0,96,87,69,30.01,29.82,18,5,0,0.00
2013-10-24,44.0,37.2,32.0,34.0,30.8,26.0,89,78,62,30.24,29.99,16,7,0,0.00
2013-10-25,48.0,39.6,28.0,33.0,29.4,25.0,90,68,50,30.39,30.19,14,10,0,0.00
2013-10-26,54.0,43.1,36.0,41.0,32.8,27.0,81,67,53,30.19,29.85,22,14,0,0.00
2013-10-27,54.0,40.2,29.0,37.0,30.3,-99.9,93,72,46,30.09,30.01,12,3,0,0.00
2013-10-28,60.0,42.1,27.0,39.0,31.0,-99.9,94,70,40,30.32,30.06,5,0,0,0.00
2013-10-29,54.0,44.0,34.0,43.0,38.4,32.0,92,81,65,30.37,30.19,8,2,0,0.00
2013-10-30,62.0,53.1,42.0,61.0,49.2,38.0,97,87,79,30.19,29.92,12,5,0,0.00
2013-10-31,63.0,60.8,56.0,62.0,59.5,54.0,97,95,92,29.92,29.24,24,18,0,0.00
2013-11-1,55.0,48.2,45.0,53.0,44.4,42.0,95,87,80,29.71,29.34,23,13,0,0.00
2013-11-2,50.0,44.3,42.0,44.0,41.6,39.0,94,90,78,30.08,29.71,16,9,0,0.00
2013-11-3,49.0,42.0,39.0,40.0,36.6,-99.9,93,84,70,30.35,30.08,8,4,0,0.00
2013-11-4,55.0,44.5,37.0,42.0,38.2,34.0,91,79,60,30.36,30.25,18,10,0,0.00
2013-11-5,57.0,50.0,42.0,49.0,44.1,38.0,91,81,68,30.34,30.14,14,8,0,0.00
2013-11-6,57.0,51.9,41.0,53.0,47.1,39.0,95,84,66,30.13,29.85,24,17,37,0.09
2013-11-7,46.0,39.9,32.0,39.0,33.4,29.0,92,78,54,30.22,30.06,21,10,27,0.02
2013-11-8,47.0,36.8,29.0,35.0,31.0,27.0,94,80,59,30.33,30.15,10,6,17,0.00
2013-11-9,59.0,48.5,41.0,44.0,35.8,-99.9,73,64,55,30.14,29.91,26,17,36,0.00
2013-11-10,47.0,39.8,30.0,38.0,31.0,26.0,89,71,60,30.31,30.03,25,10,31,0.00
2013-11-11,49.0,38.9,28.0,39.0,33.2,26.0,94,80,63,30.33,30.05,17,11,27,0.05
2013-11-12,33.0,27.4,21.0,27.0,21.6,17.0,86,79,64,30.59,30.35,17,6,21,0.07
2013-11-13,37.0,28.1,19.0,23.0,20.0,16.0,88,72,54,30.58,30.28,17,10,29,0.02
2013-11-14,52.0,38.7,29.0,28.0,24.3,20.0,76,57,36,30.27,30.04,23,14,30,0.00
2013-11-15,49.0,42.8,39.0,35.0,29.8,25.0,79,60,51,30.07,30.01,18,10,24,0.00
2013-11-16,59.0,48.0,38.0,56.0,43.6,-99.9,95,88,80,30.04,29.75,24,13,32,0.01
2013-11-17,64.0,57.7,47.0,61.0,51.9,-99.9,95,87,72,29.76,29.34,40,23,53,0.66
2013-11-18,46.0,40.0,30.0,40.0,33.7,26.0,88,78,63,30.18,29.70,27,14,34,0.02
2013-11-19,42.0,33.1,27.0,31.0,26.9,24.0,90,78,59,30.34,30.18,7,2,15,0.00
2013-11-20,44.0,34.5,27.0,35.0,28.8,23.0,88,80,68,30.34,30.17,16,6,19,0.00
2013-11-21,47.0,44.4,42.0,46.0,41.6,36.0,97,90,77,30.25,30.15,16,7,21,0.38
2013-11-22,48.0,41.3,30.0,47.0,38.9,28.0,97,92,78,30.40,30.14,19,9,27,0.07
2013-11-23,31.0,24.9,18.0,28.0,18.7,-99.9,91,81,66,30.57,30.34,22,12,36,0.02
2013-11-24,25.0,19.5,15.0,17.0,13.6,10.0,87,78,65,30.64,30.45,16,5,19,0.00
2013-11-25,32.0,25.9,16.0,25.0,17.8,11.0,92,72,61,30.46,30.14,20,11,26,0.00
2013-11-26,34.0,30.0,27.0,29.0,26.1,23.0,93,85,80,30.14,29.93,17,6,26,0.01
2013-11-27,26.0,24.3,20.0,23.0,19.5,14.0,90,82,73,30.23,29.97,19,11,23,0.01
2013-12-14,29.0,25.6,21.0,27.0,23.0,-99.9,95,93,92,30.14,29.75,15,6,18,0.00
2013-12-15,24.0,16.5,11.0,23.0,13.7,7.0,94,88,83,30.09,29.88,25,13,29,0.00
2013-12-16,20.0,15.6,11.0,18.0,12.5,7.0,99,88,81,30.13,29.98,10,2,13,0.00
2013-12-17,27.0,21.3,18.0,25.0,19.2,16.0,94,92,85,30.06,29.96,14,10,20,0.00
2013-12-18,34.0,22.9,14.0,24.0,16.9,10.0,86,78,65,30.20,29.92,24,11,29,0.13
2013-12-19,43.0,38.4,33.0,38.0,32.7,23.0,90,80,66,29.97,29.85,16,9,22,0.13
2013-12-20,54.0,47.7,41.0,53.0,46.4,38.0,98,96,89,29.85,29.71,18,12,26,0.16
2013-12-21,53.0,37.0,34.0,50.0,34.4,-99.9,97,94,88,29.82,29.52,15,6,23,1.52
2013-12-22,38.0,35.0,31.0,37.0,33.3,29.0,97,94,88,30.01,29.44,22,12,32,0.09
2013-12-23,31.0,24.2,13.0,29.0,20.3,8.0,93,85,73,30.38,30.03,24,14,28,0.02
2013-12-24,17.0,10.0,3.0,12.0,5.8,-1.0,89,83,78,30.52,30.38,18,9,23,0.00
2013-12-25,26.0,22.1,16.0,23.0,17.8,13.0,90,83,79,30.45,30.13,16,11,23,0.00
2013-12-26,33.0,27.0,19.0,27.0,22.1,15.0,94,82,71,30.30,30.08,21,12,29,0.00
2013-12-27,43.0,35.6,27.0,35.0,29.8,24.0,88,79,72,30.31,30.16,18,11,25,0.00